createdAt,value
2018-12-21T00:01:57.814Z,5.60
2018-12-21T00:04:27.433Z,5.60
2018-12-21T00:06:56.461Z,5.50
2018-12-21T00:09:25.546Z,5.50
2018-12-21T00:11:54.784Z,5.70
2018-12-21T00:14:23.852Z,5.70
2018-12-21T00:16:52.947Z,5.60
2018-12-21T00:19:22.213Z,5.70
2018-12-21T00:21:51.346Z,5.70
2018-12-21T00:24:20.478Z,5.70
2018-12-21T00:26:49.790Z,5.60
2018-12-21T00:29:18.842Z,5.60
2018-12-21T00:31:53.298Z,5.70
2018-12-21T00:34:27.455Z,5.70
2018-12-21T00:37:02.350Z,5.60
2018-12-21T00:39:36.783Z,5.60
2018-12-21T00:42:09.860Z,5.60
2018-12-21T00:44:39.123Z,5.70
2018-12-21T00:47:15.762Z,5.80
2018-12-21T00:49:44.816Z,5.70
2018-12-21T00:52:14.031Z,5.70
2018-12-21T00:54:43.284Z,5.60
2018-12-21T00:57:12.482Z,5.60
2018-12-21T00:59:41.573Z,5.70
2018-12-21T01:02:11.023Z,5.70
2018-12-21T01:04:40.390Z,5.70
2018-12-21T01:07:09.588Z,5.80
2018-12-21T01:09:38.935Z,5.80
2018-12-21T01:12:09.330Z,5.80
2018-12-21T01:14:38.569Z,5.70
2018-12-21T01:17:08.061Z,5.70
2018-12-21T01:19:37.100Z,5.70
2018-12-21T01:22:06.216Z,5.70
2018-12-21T01:24:35.646Z,5.70
2018-12-21T01:27:04.829Z,5.70
2018-12-21T01:29:33.904Z,5.70
2018-12-21T01:32:03.228Z,5.70
2018-12-21T01:34:32.284Z,5.60
2018-12-21T01:37:01.420Z,5.50
2018-12-21T01:39:30.594Z,5.40
2018-12-21T01:41:59.635Z,5.40
2018-12-21T01:44:28.716Z,5.40
2018-12-21T01:46:58.416Z,5.40
2018-12-21T01:49:27.485Z,5.40
2018-12-21T01:51:56.560Z,5.30
2018-12-21T01:54:26.007Z,5.40
2018-12-21T01:56:55.046Z,5.40
2018-12-21T01:59:24.133Z,5.30
2018-12-21T02:01:53.596Z,5.30
2018-12-21T02:04:22.669Z,5.30
2018-12-21T02:06:51.801Z,5.40
2018-12-21T02:09:21.028Z,5.30
2018-12-21T02:11:50.083Z,5.40
2018-12-21T02:14:19.251Z,5.40
2018-12-21T02:16:48.791Z,5.50
2018-12-21T02:19:17.847Z,5.50
2018-12-21T02:21:55.725Z,5.60
2018-12-21T02:24:18.220Z,5.60
2018-12-21T02:26:47.319Z,5.60
2018-12-21T02:29:16.401Z,5.60
2018-12-21T02:31:45.815Z,5.60
2018-12-21T02:34:14.961Z,5.60
2018-12-21T02:36:44.011Z,5.60
2018-12-21T02:39:13.378Z,5.70
2018-12-21T02:41:42.525Z,5.80
2018-12-21T02:44:11.604Z,5.80
2018-12-21T02:46:40.776Z,5.70
2018-12-21T02:49:10.048Z,5.70
2018-12-21T02:51:39.149Z,5.60
2018-12-21T02:54:08.410Z,5.60
2018-12-21T02:56:37.541Z,5.70
2018-12-21T02:59:06.779Z,5.70
2018-12-21T03:01:36.190Z,5.70
2018-12-21T03:04:05.285Z,5.80
2018-12-21T03:06:34.349Z,5.80
2018-12-21T03:09:05.024Z,5.80
2018-12-21T03:11:34.110Z,5.80
2018-12-21T03:14:03.198Z,5.80
2018-12-21T03:16:32.776Z,5.70
2018-12-21T03:19:01.852Z,5.70
2018-12-21T03:21:31.004Z,5.80
2018-12-21T03:24:00.589Z,5.80
2018-12-21T03:26:29.747Z,5.70
2018-12-21T03:28:58.785Z,5.70
2018-12-21T03:31:28.039Z,5.80
2018-12-21T03:33:57.137Z,5.90
2018-12-21T03:36:26.228Z,5.90
2018-12-21T03:38:55.523Z,6.00
2018-12-21T03:41:24.610Z,6.00
2018-12-21T03:43:53.762Z,5.90
2018-12-21T03:46:22.991Z,6.00
2018-12-21T03:48:52.057Z,6.10
2018-12-21T03:51:21.112Z,6.00
2018-12-21T03:53:50.547Z,6.00
2018-12-21T03:56:20.193Z,5.90
2018-12-21T03:58:49.262Z,5.80
2018-12-21T04:01:18.529Z,5.80
2018-12-21T04:03:47.563Z,5.90
2018-12-21T04:06:16.699Z,5.90
2018-12-21T04:08:45.955Z,6.10
2018-12-21T04:11:15.024Z,6.10
2018-12-21T04:13:44.067Z,6.40
2018-12-21T04:16:13.660Z,6.40
2018-12-21T04:18:42.809Z,6.40
2018-12-21T04:21:11.863Z,6.30
2018-12-21T04:23:41.203Z,6.40
2018-12-21T04:26:10.254Z,6.50
2018-12-21T04:28:39.347Z,6.60
2018-12-21T04:31:08.639Z,6.60
2018-12-21T04:33:37.799Z,6.60
2018-12-21T04:36:06.972Z,6.70
2018-12-21T04:38:36.514Z,6.80
2018-12-21T04:41:05.575Z,6.70
2018-12-21T04:43:34.655Z,6.70
2018-12-21T04:46:04.188Z,6.80
2018-12-21T04:48:33.349Z,6.80
2018-12-21T04:51:02.487Z,6.80
2018-12-21T04:53:31.793Z,6.80
2018-12-21T04:56:01.022Z,6.80
2018-12-21T04:58:30.661Z,6.90
2018-12-21T05:00:59.831Z,7.00
2018-12-21T05:03:28.860Z,6.90
2018-12-21T05:05:57.999Z,7.00
2018-12-21T05:08:27.326Z,7.00
2018-12-21T05:10:56.401Z,6.90
2018-12-21T05:13:25.446Z,6.90
2018-12-21T05:15:54.789Z,6.90
2018-12-21T05:18:24.048Z,6.80
2018-12-21T05:20:53.121Z,6.80
2018-12-21T05:23:22.297Z,6.80
2018-12-21T05:25:51.387Z,6.80
2018-12-21T05:28:20.543Z,6.80
2018-12-21T05:30:49.887Z,6.80
2018-12-21T05:33:19.069Z,6.80
2018-12-21T05:35:48.176Z,6.80
2018-12-21T05:38:17.395Z,6.70
2018-12-21T05:40:46.434Z,6.70
2018-12-21T05:43:15.516Z,6.70
2018-12-21T05:45:45.063Z,6.70
2018-12-21T05:48:14.999Z,6.80
2018-12-21T05:50:44.137Z,6.70
2018-12-21T05:53:13.401Z,6.80
2018-12-21T05:55:42.427Z,6.90
2018-12-21T05:58:11.495Z,6.90
2018-12-21T06:00:40.697Z,7.00
2018-12-21T06:03:09.741Z,7.00
2018-12-21T06:05:38.841Z,6.90
2018-12-21T06:08:08.457Z,6.90
2018-12-21T06:10:37.491Z,6.90
2018-12-21T06:13:06.573Z,7.00
2018-12-21T06:15:36.051Z,7.00
2018-12-21T06:18:05.093Z,7.10
2018-12-21T06:20:34.159Z,7.00
2018-12-21T06:23:09.462Z,7.10
2018-12-21T06:25:34.696Z,7.10
2018-12-21T06:28:04.401Z,7.10
2018-12-21T06:30:33.440Z,7.00
2018-12-21T06:33:02.515Z,7.00
2018-12-21T06:35:31.836Z,7.00
2018-12-21T06:38:00.903Z,7.00
2018-12-21T06:40:30.947Z,6.90
2018-12-21T06:43:00.496Z,6.90
2018-12-21T06:45:29.540Z,6.90
2018-12-21T06:47:58.619Z,6.90
2018-12-21T06:50:27.900Z,6.90
2018-12-21T06:52:56.990Z,6.90
2018-12-21T06:55:26.169Z,6.80
2018-12-21T06:57:55.359Z,6.80
2018-12-21T07:00:24.393Z,6.70
2018-12-21T07:02:53.591Z,6.70
2018-12-21T07:05:22.986Z,6.70
2018-12-21T07:07:52.023Z,6.60
2018-12-21T07:10:21.105Z,6.70
2018-12-21T07:12:50.254Z,6.70
2018-12-21T07:15:19.283Z,6.60
2018-12-21T07:17:48.363Z,6.70
2018-12-21T07:20:17.838Z,6.70
2018-12-21T07:22:47.537Z,6.70
2018-12-21T07:25:16.671Z,6.70
2018-12-21T07:27:46.057Z,6.70
2018-12-21T07:30:15.238Z,6.80
2018-12-21T07:32:44.323Z,6.80
2018-12-21T07:35:15.970Z,6.80
2018-12-21T07:37:45.131Z,6.80
2018-12-21T07:40:14.198Z,6.80
2018-12-21T07:42:43.331Z,6.80
2018-12-21T07:45:12.415Z,6.80
2018-12-21T07:47:41.481Z,6.80
2018-12-21T07:50:11.293Z,6.90
2018-12-21T07:52:40.479Z,6.90
2018-12-21T07:55:10.239Z,6.80
2018-12-21T07:57:39.980Z,6.90
2018-12-21T08:00:11.259Z,6.90
2018-12-21T08:02:40.556Z,6.90
2018-12-21T08:05:09.629Z,6.90
2018-12-21T08:07:38.759Z,7.00
2018-12-21T08:10:12.174Z,7.00
2018-12-21T08:12:42.089Z,7.00
2018-12-21T08:15:11.222Z,7.10
2018-12-21T08:17:40.666Z,7.00
2018-12-21T08:20:10.220Z,7.10
2018-12-21T08:22:39.269Z,7.10
2018-12-21T08:25:08.864Z,7.10
2018-12-21T08:27:37.962Z,7.10
2018-12-21T08:30:08.712Z,7.20
2018-12-21T08:32:38.167Z,7.20
2018-12-21T08:35:07.600Z,7.20
2018-12-21T08:37:36.642Z,7.30
2018-12-21T08:40:08.662Z,7.30
2018-12-21T08:42:37.704Z,7.30
2018-12-21T08:45:09.604Z,7.30
2018-12-21T08:47:38.677Z,7.30
2018-12-21T08:50:10.434Z,7.30
2018-12-21T08:52:39.542Z,7.30
2018-12-21T08:55:08.590Z,7.30
2018-12-21T08:57:37.809Z,7.40
2018-12-21T09:00:10.566Z,7.40
2018-12-21T09:02:40.100Z,7.40
2018-12-21T09:05:09.898Z,7.40
2018-12-21T09:07:39.606Z,7.50
2018-12-21T09:10:11.024Z,7.50
2018-12-21T09:12:40.214Z,7.50
2018-12-21T09:15:13.376Z,7.50
2018-12-21T09:17:42.535Z,7.50
2018-12-21T09:20:12.148Z,7.60
2018-12-21T09:22:41.409Z,7.60
2018-12-21T09:25:10.583Z,7.60
2018-12-21T09:27:39.860Z,7.70
2018-12-21T09:30:12.409Z,7.70
2018-12-21T09:32:41.502Z,7.80
2018-12-21T09:35:10.661Z,7.80
2018-12-21T09:37:40.092Z,7.80
2018-12-21T09:40:11.426Z,7.80
2018-12-21T09:42:40.490Z,7.70
2018-12-21T09:45:09.627Z,7.80
2018-12-21T09:47:38.713Z,7.70
2018-12-21T09:50:09.526Z,7.70
2018-12-21T09:52:39.250Z,7.80
2018-12-21T09:55:08.447Z,7.70
2018-12-21T09:57:37.573Z,7.80
2018-12-21T10:00:09.904Z,7.80
2018-12-21T10:02:45.604Z,7.80
2018-12-21T10:05:16.492Z,7.90
2018-12-21T10:07:45.582Z,7.90
2018-12-21T10:10:14.738Z,7.90
2018-12-21T10:12:44.083Z,7.90
2018-12-21T10:15:13.182Z,7.90
2018-12-21T10:17:42.248Z,7.90
2018-12-21T10:20:11.613Z,7.90
2018-12-21T10:22:40.708Z,7.90
2018-12-21T10:25:09.810Z,7.90
2018-12-21T10:27:38.931Z,7.90
2018-12-21T10:30:10.183Z,7.90
2018-12-21T10:32:39.247Z,7.90
2018-12-21T10:35:09.404Z,7.90
2018-12-21T10:37:38.459Z,7.90
2018-12-21T10:40:08.640Z,7.90
2018-12-21T10:42:37.891Z,7.90
2018-12-21T10:45:07.329Z,7.90
2018-12-21T10:47:36.353Z,7.90
2018-12-21T10:50:08.225Z,7.90
2018-12-21T10:52:38.971Z,7.80
2018-12-21T10:55:08.575Z,7.70
2018-12-21T10:57:38.070Z,7.70
2018-12-21T11:00:10.067Z,7.60
2018-12-21T11:02:39.306Z,7.50
2018-12-21T11:05:08.702Z,7.40
2018-12-21T11:07:37.763Z,7.40
2018-12-21T11:10:09.983Z,7.50
2018-12-21T11:12:39.081Z,7.40
2018-12-21T11:15:08.232Z,7.40
2018-12-21T11:17:37.360Z,7.40
2018-12-21T11:20:07.865Z,7.50
2018-12-21T11:22:36.896Z,7.50
2018-12-21T11:25:08.937Z,7.40
2018-12-21T11:27:37.979Z,7.40
2018-12-21T11:30:07.871Z,7.40
2018-12-21T11:32:37.388Z,7.40
2018-12-21T11:35:06.560Z,7.40
2018-12-21T11:37:35.587Z,7.30
2018-12-21T11:40:05.244Z,7.30
2018-12-21T11:42:34.291Z,7.30
2018-12-21T11:45:03.567Z,7.30
2018-12-21T11:47:32.839Z,7.30
2018-12-21T11:50:01.895Z,7.30
2018-12-21T11:52:30.955Z,7.20
2018-12-21T11:55:00.397Z,7.20
2018-12-21T11:57:29.443Z,7.20
2018-12-21T11:59:58.479Z,7.20
2018-12-21T12:02:28.050Z,7.20
2018-12-21T12:04:57.099Z,7.20
2018-12-21T12:07:26.328Z,7.20
2018-12-21T12:09:55.800Z,7.20
2018-12-21T12:12:24.800Z,7.20
2018-12-21T12:14:53.856Z,7.10
2018-12-21T12:17:23.213Z,7.10
2018-12-21T12:19:52.290Z,7.00
2018-12-21T12:22:21.295Z,7.00
2018-12-21T12:24:52.847Z,7.00
2018-12-21T12:27:21.843Z,7.00
2018-12-21T12:29:51.056Z,7.00
2018-12-21T12:32:20.117Z,7.00
2018-12-21T12:34:49.216Z,7.00
2018-12-21T12:37:18.627Z,7.00
2018-12-21T12:39:47.721Z,7.00
2018-12-21T12:42:16.767Z,7.00
2018-12-21T12:44:46.441Z,7.00
2018-12-21T12:47:15.474Z,7.00
2018-12-21T12:49:44.523Z,7.00
2018-12-21T12:52:14.035Z,7.00
2018-12-21T12:54:43.887Z,7.00
2018-12-21T12:57:12.951Z,7.00
2018-12-21T12:59:42.565Z,7.00
2018-12-21T13:02:11.639Z,7.00
2018-12-21T13:04:40.691Z,7.10
2018-12-21T13:07:10.485Z,7.10
2018-12-21T13:09:39.543Z,7.20
2018-12-21T13:12:08.587Z,7.20
2018-12-21T13:14:38.042Z,7.20
2018-12-21T13:17:07.071Z,7.20
2018-12-21T13:19:36.098Z,7.30
2018-12-21T13:22:05.641Z,7.30
2018-12-21T13:24:34.658Z,7.30
2018-12-21T13:27:03.725Z,7.40
2018-12-21T13:29:32.994Z,7.40
2018-12-21T13:32:02.281Z,7.50
2018-12-21T13:34:31.335Z,7.50
2018-12-21T13:37:00.491Z,7.50
2018-12-21T13:39:29.535Z,7.40
2018-12-21T13:41:58.648Z,7.40
2018-12-21T13:44:28.126Z,7.40
2018-12-21T13:46:57.192Z,7.40
2018-12-21T13:49:26.235Z,7.40
2018-12-21T13:51:55.493Z,7.40
2018-12-21T13:54:24.543Z,7.40
2018-12-21T13:56:53.586Z,7.40
2018-12-21T13:59:22.970Z,7.50
2018-12-21T14:01:51.992Z,7.40
2018-12-21T14:04:21.018Z,7.50
2018-12-21T14:06:50.578Z,7.50
2018-12-21T14:15:09.474Z,7.40
2018-12-21T14:17:39.301Z,7.40
2018-12-21T14:20:11.177Z,7.40
2018-12-21T14:22:40.203Z,7.50
2018-12-21T14:25:09.363Z,7.50
2018-12-21T14:27:38.911Z,7.40
2018-12-21T14:30:09.247Z,7.40
2018-12-21T14:32:38.445Z,7.40
2018-12-21T14:35:08.756Z,7.40
2018-12-21T14:37:37.920Z,7.50
2018-12-21T14:40:07.126Z,7.50
2018-12-21T14:42:36.375Z,7.50
2018-12-21T14:45:06.021Z,7.50
2018-12-21T14:47:35.040Z,7.60
2018-12-21T14:50:05.015Z,7.60
2018-12-21T14:52:34.092Z,7.60
2018-12-21T14:55:03.139Z,7.60
2018-12-21T14:57:32.492Z,7.60
2018-12-21T15:00:01.594Z,7.60
2018-12-21T15:02:30.762Z,7.60
2018-12-21T15:05:00.098Z,7.60
2018-12-21T15:07:29.639Z,7.60
2018-12-21T15:09:58.691Z,7.60
2018-12-21T15:12:28.460Z,7.60
2018-12-21T15:14:57.593Z,7.70
2018-12-21T15:17:26.646Z,7.70
2018-12-21T15:19:55.868Z,7.60
2018-12-21T15:22:24.978Z,7.60
2018-12-21T15:24:54.078Z,7.60
2018-12-21T15:27:23.224Z,7.60
2018-12-21T15:29:52.270Z,7.60
2018-12-21T15:32:21.410Z,7.70
2018-12-21T15:34:50.766Z,7.70
2018-12-21T15:37:21.314Z,7.70
2018-12-21T15:39:50.310Z,7.70
2018-12-21T15:42:19.588Z,7.70
2018-12-21T15:44:48.692Z,7.70
2018-12-21T15:47:17.754Z,7.70
2018-12-21T15:49:47.346Z,7.70
2018-12-21T15:52:16.702Z,7.70
2018-12-21T15:54:45.754Z,7.70
2018-12-21T15:57:15.382Z,7.70
2018-12-21T15:59:44.468Z,7.80
2018-12-21T16:02:13.545Z,7.80
2018-12-21T16:04:42.962Z,7.80
2018-12-21T16:07:12.050Z,7.80
2018-12-21T16:09:41.153Z,7.80
2018-12-21T16:12:10.559Z,7.80
2018-12-21T16:14:40.140Z,7.80
2018-12-21T16:17:09.170Z,7.80
2018-12-21T16:19:38.372Z,7.80
2018-12-21T16:22:07.462Z,7.80
2018-12-21T16:24:36.515Z,7.80
2018-12-21T16:27:05.716Z,7.80
2018-12-21T16:29:34.824Z,7.80
2018-12-21T16:32:03.915Z,7.80
2018-12-21T16:34:33.352Z,7.80
2018-12-21T16:37:02.475Z,7.90
2018-12-21T16:39:31.600Z,7.90
2018-12-21T16:42:01.270Z,7.80
2018-12-21T16:44:30.344Z,7.90
2018-12-21T16:46:59.435Z,7.90
2018-12-21T16:49:28.911Z,7.90
2018-12-21T16:51:57.966Z,7.90
2018-12-21T16:54:27.110Z,7.90
2018-12-21T16:56:56.732Z,7.90
2018-12-21T16:59:25.858Z,7.90
2018-12-21T17:01:55.092Z,7.90
2018-12-21T17:04:24.636Z,7.90
2018-12-21T17:06:53.816Z,7.90
2018-12-21T17:09:22.942Z,7.90
2018-12-21T17:11:52.706Z,7.90
2018-12-21T17:14:21.768Z,7.90
2018-12-21T17:16:50.860Z,7.90
2018-12-21T17:19:21.663Z,7.90
2018-12-21T17:21:53.132Z,7.90
2018-12-21T17:24:22.368Z,7.90
2018-12-21T17:26:51.882Z,7.90
2018-12-21T17:29:20.946Z,7.90
2018-12-21T17:31:50.205Z,8.00
2018-12-21T17:34:19.978Z,7.90
2018-12-21T17:36:49.038Z,7.90
2018-12-21T17:39:18.179Z,8.00
2018-12-21T17:41:47.270Z,8.00
2018-12-21T17:44:16.672Z,8.00
2018-12-21T17:46:45.844Z,8.00
2018-12-21T17:52:10.899Z,8.10
2018-12-21T18:03:47.383Z,8.20
2018-12-21T18:06:16.948Z,8.20
2018-12-21T18:08:46.040Z,8.20
2018-12-21T18:11:15.296Z,8.20
2018-12-21T18:13:44.362Z,8.20
2018-12-21T18:16:13.680Z,8.30
2018-12-21T18:18:43.166Z,8.30
2018-12-21T18:21:12.273Z,8.30
2018-12-21T18:23:42.924Z,8.30
2018-12-21T18:26:12.160Z,8.30
2018-12-21T18:28:41.305Z,8.30
2018-12-21T18:31:31.016Z,8.30
2018-12-21T18:34:02.405Z,8.30
2018-12-21T18:36:33.426Z,8.30
2018-12-21T18:39:02.542Z,8.30
2018-12-21T18:41:31.676Z,8.30
2018-12-21T18:44:01.774Z,8.30
2018-12-21T18:46:30.866Z,8.30
2018-12-21T18:49:00.238Z,8.30
2018-12-21T18:51:29.688Z,8.30
2018-12-21T18:53:58.852Z,8.30
2018-12-21T18:56:29.768Z,8.30
2018-12-21T18:58:59.065Z,8.40
2018-12-21T19:01:28.358Z,8.40
2018-12-21T19:03:57.542Z,8.40
2018-12-21T19:06:26.723Z,8.40
2018-12-21T19:08:55.824Z,8.30
2018-12-21T19:11:24.948Z,8.40
2018-12-21T19:13:54.316Z,8.40
2018-12-21T19:16:27.040Z,8.40
2018-12-21T19:18:56.273Z,8.40
2018-12-21T19:21:25.295Z,8.40
2018-12-21T19:23:54.609Z,8.40
2018-12-21T19:26:23.834Z,8.40
2018-12-21T19:28:52.916Z,8.40
2018-12-21T19:31:22.249Z,8.40
2018-12-21T19:33:51.544Z,8.40
2018-12-21T19:36:20.640Z,8.40
2018-12-21T19:38:49.774Z,8.40
2018-12-21T19:41:19.008Z,8.40
2018-12-21T19:43:48.044Z,8.40
2018-12-21T19:46:17.180Z,8.40
2018-12-21T19:48:46.509Z,8.40
2018-12-21T19:51:16.394Z,8.40
2018-12-21T19:53:45.782Z,8.40
2018-12-21T19:56:24.991Z,8.50
2018-12-21T19:58:54.075Z,8.40
2018-12-21T20:01:23.156Z,8.40
2018-12-21T20:03:52.366Z,8.50
2018-12-21T20:06:21.466Z,8.40
2018-12-21T20:08:50.546Z,8.40
2018-12-21T20:11:19.788Z,8.40
2018-12-21T20:13:49.041Z,8.40
2018-12-21T20:16:18.125Z,8.40
2018-12-21T20:18:47.740Z,8.40
2018-12-21T20:21:17.358Z,8.40
2018-12-21T20:23:46.850Z,8.50
2018-12-21T20:26:16.370Z,8.50
2018-12-21T20:28:45.500Z,8.50
2018-12-21T20:31:14.618Z,8.40
2018-12-21T20:33:43.970Z,8.40
2018-12-21T20:36:13.216Z,8.50
2018-12-21T20:38:42.328Z,8.50
2018-12-21T20:41:12.113Z,8.50
2018-12-21T20:43:41.271Z,8.50
2018-12-21T20:46:10.327Z,8.50
2018-12-21T20:48:39.509Z,8.50
2018-12-21T20:51:08.595Z,8.60
2018-12-21T20:53:37.693Z,8.60
2018-12-21T20:56:07.055Z,8.60
2018-12-21T20:58:41.124Z,8.60
2018-12-21T21:01:10.321Z,8.60
2018-12-21T21:03:39.381Z,8.60
2018-12-21T21:06:08.531Z,8.70
2018-12-21T21:08:38.645Z,8.70
2018-12-21T21:11:07.762Z,8.60
2018-12-21T21:13:36.869Z,8.70
2018-12-21T21:16:06.471Z,8.70
2018-12-21T21:18:35.579Z,8.70
2018-12-21T21:21:05.068Z,8.80
2018-12-21T21:23:34.567Z,8.80
2018-12-21T21:26:04.100Z,8.80
2018-12-21T21:28:33.176Z,8.80
2018-12-21T21:31:02.774Z,8.80
2018-12-21T21:33:31.876Z,8.90
2018-12-21T21:36:01.036Z,8.90
2018-12-21T21:43:27.740Z,8.90
2018-12-21T21:45:56.978Z,9.00
2018-12-21T21:48:26.080Z,8.90
2018-12-21T21:50:55.167Z,9.00
2018-12-21T21:53:24.944Z,9.00
2018-12-21T21:55:54.050Z,9.00
2018-12-21T21:58:23.120Z,9.00
2018-12-21T22:00:52.528Z,9.00
2018-12-21T22:03:21.726Z,9.00
2018-12-21T22:05:50.820Z,9.00
2018-12-21T22:08:20.095Z,9.10
2018-12-21T22:10:49.179Z,9.10
2018-12-21T22:13:19.747Z,9.10
2018-12-21T22:15:48.970Z,9.20
2018-12-21T22:18:18.051Z,9.20
2018-12-21T22:20:47.136Z,9.20
2018-12-21T22:23:16.549Z,9.20
2018-12-21T22:25:53.112Z,9.30
2018-12-21T22:28:16.749Z,9.40
2018-12-21T22:30:46.275Z,9.40
2018-12-21T22:33:15.387Z,9.50
2018-12-21T22:35:44.567Z,9.40
2018-12-21T22:38:13.779Z,9.40
2018-12-21T22:40:42.879Z,9.40
2018-12-21T22:43:11.972Z,9.40
2018-12-21T22:45:41.185Z,9.40
2018-12-21T22:48:10.398Z,9.40
2018-12-21T22:50:39.451Z,9.50
2018-12-21T22:53:08.678Z,9.50
2018-12-21T22:55:37.754Z,9.50
2018-12-21T22:58:06.825Z,9.50
2018-12-21T23:00:39.140Z,9.50
2018-12-21T23:03:08.288Z,9.50
2018-12-21T23:05:37.345Z,9.50
2018-12-21T23:08:06.704Z,9.50
2018-12-21T23:10:35.744Z,9.40
2018-12-21T23:13:04.807Z,9.40
2018-12-21T23:15:34.058Z,9.50
2018-12-21T23:18:03.100Z,9.50
2018-12-21T23:20:32.156Z,9.50
2018-12-21T23:23:01.572Z,9.50
2018-12-21T23:25:30.698Z,9.50
2018-12-21T23:28:04.914Z,9.50
2018-12-21T23:30:31.178Z,9.60
2018-12-21T23:33:00.162Z,9.50
2018-12-21T23:35:29.410Z,9.50
2018-12-21T23:37:58.624Z,9.60
2018-12-21T23:40:27.674Z,9.50
2018-12-21T23:42:56.709Z,9.50
2018-12-21T23:45:26.050Z,9.60
2018-12-21T23:47:55.075Z,9.50
2018-12-21T23:50:24.274Z,9.50
2018-12-21T23:52:53.959Z,9.50
2018-12-21T23:55:22.962Z,9.50
2018-12-21T23:57:52.028Z,9.60
